createdAt,value
2022-12-29T00:00:11.069Z,2.60
2022-12-29T00:02:40.934Z,2.42
2022-12-29T00:05:07.995Z,2.80
2022-12-29T00:07:34.361Z,2.10
2022-12-29T00:10:00.707Z,2.50
2022-12-29T00:12:47.051Z,2.67
2022-12-29T00:15:32.016Z,2.35
2022-12-29T00:17:58.390Z,2.10
2022-12-29T00:20:43.601Z,2.05
2022-12-29T00:23:28.862Z,2.15
2022-12-29T00:26:13.710Z,2.35
2022-12-29T00:28:59.501Z,2.38
2022-12-29T00:31:44.451Z,2.00
2022-12-29T00:34:30.437Z,2.00
2022-12-29T00:36:57.105Z,1.83
2022-12-29T00:39:42.347Z,1.60
2022-12-29T00:42:27.889Z,2.05
2022-12-29T00:44:54.302Z,1.80
2022-12-29T00:47:20.681Z,1.35
2022-12-29T00:49:47.006Z,1.70
2022-12-29T00:52:13.823Z,2.00
2022-12-29T00:54:40.957Z,1.77
2022-12-29T00:57:08.185Z,1.98
2022-12-29T00:59:38.053Z,1.80
2022-12-29T01:02:04.868Z,1.80
2022-12-29T01:04:31.297Z,1.73
2022-12-29T01:06:57.659Z,1.75
2022-12-29T01:09:42.749Z,1.92
2022-12-29T01:12:10.267Z,1.70
2022-12-29T01:14:37.121Z,1.50
2022-12-29T01:17:03.643Z,1.75
2022-12-29T01:19:30.093Z,1.90
2022-12-29T01:21:56.751Z,1.75
2022-12-29T01:24:23.207Z,1.75
2022-12-29T01:26:49.780Z,1.90
2022-12-29T01:29:17.333Z,1.80
2022-12-29T01:31:45.695Z,1.83
2022-12-29T01:34:12.093Z,1.65
2022-12-29T01:36:38.485Z,2.08
2022-12-29T01:39:04.834Z,2.03
2022-12-29T01:41:32.412Z,1.98
2022-12-29T01:44:02.651Z,2.20
2022-12-29T01:46:29.040Z,2.40
2022-12-29T01:49:21.802Z,2.33
2022-12-29T01:51:53.312Z,2.30
2022-12-29T01:54:40.335Z,1.85
2022-12-29T01:57:09.083Z,1.92
2022-12-29T01:59:36.781Z,2.20
2022-12-29T02:02:03.588Z,1.90
2022-12-29T02:04:32.735Z,1.92
2022-12-29T02:07:03.776Z,1.55
2022-12-29T02:09:30.448Z,2.10
2022-12-29T02:11:57.634Z,1.80
2022-12-29T02:14:23.949Z,2.20
2022-12-29T02:16:59.607Z,2.15
2022-12-29T02:19:53.851Z,2.10
2022-12-29T02:22:27.323Z,2.10
2022-12-29T02:25:21.525Z,2.22
2022-12-29T02:27:47.836Z,2.45
2022-12-29T02:30:17.261Z,1.92
2022-12-29T02:32:57.365Z,1.73
2022-12-29T02:35:28.472Z,2.20
2022-12-29T02:37:55.246Z,1.95
2022-12-29T02:40:28.960Z,2.10
2022-12-29T02:43:09.795Z,1.75
2022-12-29T02:45:39.626Z,2.00
2022-12-29T02:48:24.863Z,1.50
2022-12-29T02:51:03.578Z,1.35
2022-12-29T02:53:49.830Z,1.30
2022-12-29T02:56:18.132Z,1.30
2022-12-29T02:58:46.365Z,1.60
2022-12-29T03:01:25.077Z,0.85
2022-12-29T03:04:03.681Z,1.00
2022-12-29T03:06:33.977Z,1.00
2022-12-29T03:09:18.688Z,0.95
2022-12-29T03:12:09.137Z,1.13
2022-12-29T03:15:09.383Z,1.05
2022-12-29T03:17:59.740Z,1.20
2022-12-29T03:20:32.295Z,1.00
2022-12-29T03:23:01.542Z,0.93
2022-12-29T03:25:36.337Z,1.15
2022-12-29T03:28:07.866Z,1.23
2022-12-29T03:30:40.480Z,0.80
2022-12-29T03:33:10.415Z,1.17
2022-12-29T03:35:40.125Z,1.00
2022-12-29T03:38:11.969Z,1.00
2022-12-29T03:40:40.871Z,1.30
2022-12-29T03:43:07.579Z,1.23
2022-12-29T03:45:36.052Z,1.17
2022-12-29T03:48:02.767Z,1.05
2022-12-29T03:50:30.055Z,1.15
2022-12-29T03:52:56.390Z,1.30
2022-12-29T03:55:23.287Z,1.30
2022-12-29T03:57:49.640Z,1.30
2022-12-29T04:00:23.208Z,1.30
2022-12-29T04:02:50.598Z,1.48
2022-12-29T04:05:23.689Z,1.60
2022-12-29T04:07:53.369Z,1.58
2022-12-29T04:10:19.786Z,1.60
2022-12-29T04:12:48.256Z,1.25
2022-12-29T04:15:14.783Z,1.55
2022-12-29T04:17:41.655Z,1.50
2022-12-29T04:20:26.787Z,1.77
2022-12-29T04:22:59.827Z,1.83
2022-12-29T04:25:26.394Z,1.50
2022-12-29T04:27:53.193Z,1.75
2022-12-29T04:30:40.323Z,2.03
2022-12-29T04:33:16.150Z,1.35
2022-12-29T04:35:45.883Z,1.92
2022-12-29T04:38:13.240Z,1.60
2022-12-29T04:40:41.562Z,1.63
2022-12-29T04:43:09.843Z,1.73
2022-12-29T04:45:48.772Z,1.63
2022-12-29T04:48:26.894Z,1.45
2022-12-29T04:51:13.916Z,2.10
2022-12-29T04:53:41.718Z,2.10
2022-12-29T04:56:08.441Z,2.03
2022-12-29T04:58:34.823Z,1.30
2022-12-29T05:01:01.237Z,1.55
2022-12-29T05:03:30.202Z,2.00
2022-12-29T05:05:57.498Z,2.28
2022-12-29T05:08:28.053Z,1.35
2022-12-29T05:10:56.071Z,1.88
2022-12-29T05:13:22.491Z,2.13
2022-12-29T05:15:52.808Z,2.08
2022-12-29T05:18:20.228Z,2.80
2022-12-29T05:20:47.198Z,2.33
2022-12-29T05:23:13.900Z,1.90
2022-12-29T05:25:41.304Z,3.28
2022-12-29T05:28:33.527Z,2.23
2022-12-29T05:31:12.995Z,1.85
2022-12-29T05:33:39.527Z,2.97
2022-12-29T05:36:06.874Z,2.00
2022-12-29T05:38:34.535Z,2.72
2022-12-29T05:41:01.131Z,2.05
2022-12-29T05:43:46.560Z,2.35
2022-12-29T05:46:29.036Z,2.47
2022-12-29T05:49:09.593Z,1.80
2022-12-29T05:51:58.977Z,2.35
2022-12-29T05:54:25.410Z,3.22
2022-12-29T05:56:52.274Z,2.30
2022-12-29T05:59:18.646Z,2.25
2022-12-29T06:01:45.171Z,2.20
2022-12-29T06:04:12.174Z,2.25
2022-12-29T06:06:39.756Z,2.60
2022-12-29T06:09:10.487Z,2.33
2022-12-29T06:11:36.899Z,1.80
2022-12-29T06:14:03.452Z,2.40
2022-12-29T06:16:29.875Z,2.63
2022-12-29T06:18:59.038Z,1.85
2022-12-29T06:21:25.475Z,2.90
2022-12-29T06:23:51.882Z,2.38
2022-12-29T06:26:18.399Z,2.10
2022-12-29T06:28:47.707Z,3.17
2022-12-29T06:31:14.263Z,2.25
2022-12-29T06:33:41.037Z,2.60
2022-12-29T06:36:07.875Z,3.22
2022-12-29T06:38:36.116Z,2.22
2022-12-29T06:41:02.527Z,2.90
2022-12-29T06:43:54.595Z,2.67
2022-12-29T06:46:35.785Z,2.05
2022-12-29T06:49:02.787Z,2.45
2022-12-29T06:51:29.073Z,2.38
2022-12-29T06:53:55.507Z,2.35
2022-12-29T06:56:21.895Z,2.85
2022-12-29T06:58:48.234Z,2.42
2022-12-29T07:01:14.623Z,2.60
2022-12-29T07:03:42.401Z,2.55
2022-12-29T07:06:08.760Z,3.08
2022-12-29T07:08:35.093Z,3.03
2022-12-29T07:11:01.453Z,2.50
2022-12-29T07:13:27.839Z,2.88
2022-12-29T07:15:54.182Z,3.20
2022-12-29T07:18:20.552Z,2.67
2022-12-29T07:20:46.919Z,1.73
2022-12-29T07:23:13.269Z,2.53
2022-12-29T07:25:41.667Z,2.58
2022-12-29T07:28:08.171Z,1.80
2022-12-29T07:30:34.642Z,1.73
2022-12-29T07:33:01.058Z,1.85
2022-12-29T07:35:27.410Z,2.15
2022-12-29T07:37:53.741Z,2.42
2022-12-29T07:40:20.129Z,2.10
2022-12-29T07:42:46.447Z,5.55
2022-12-29T07:45:15.298Z,2.35
2022-12-29T07:48:08.431Z,2.08
2022-12-29T07:50:37.831Z,2.40
2022-12-29T07:53:04.515Z,3.05
2022-12-29T07:55:30.884Z,2.30
2022-12-29T07:57:57.650Z,2.30
2022-12-29T08:00:24.059Z,2.47
2022-12-29T08:02:51.721Z,2.38
2022-12-29T08:05:18.131Z,2.33
2022-12-29T08:07:45.186Z,2.05
2022-12-29T08:10:12.074Z,2.70
2022-12-29T08:12:38.690Z,2.63
2022-12-29T08:15:05.471Z,1.58
2022-12-29T08:17:31.832Z,3.03
2022-12-29T08:19:58.163Z,3.78
2022-12-29T08:22:24.537Z,3.15
2022-12-29T08:24:50.967Z,3.72
2022-12-29T08:27:20.646Z,1.90
2022-12-29T08:29:47.658Z,2.60
2022-12-29T08:32:14.132Z,2.50
2022-12-29T08:34:40.458Z,2.83
2022-12-29T08:37:07.046Z,2.30
2022-12-29T08:39:33.351Z,2.60
2022-12-29T08:41:59.713Z,2.83
2022-12-29T08:44:26.002Z,2.95
2022-12-29T08:46:52.420Z,2.90
2022-12-29T08:49:18.834Z,2.17
2022-12-29T08:51:45.286Z,2.80
2022-12-29T08:54:11.647Z,3.08
2022-12-29T08:56:38.004Z,2.85
2022-12-29T08:59:04.949Z,3.13
2022-12-29T09:01:32.152Z,2.65
2022-12-29T09:04:16.200Z,2.28
2022-12-29T09:06:44.178Z,3.33
2022-12-29T09:09:11.273Z,2.88
2022-12-29T09:11:37.633Z,3.05
2022-12-29T09:14:04.670Z,3.13
2022-12-29T09:16:31.208Z,3.30
2022-12-29T09:18:57.583Z,3.28
2022-12-29T09:21:23.923Z,2.15
2022-12-29T09:23:50.249Z,4.00
2022-12-29T09:26:16.556Z,3.67
2022-12-29T09:28:43.212Z,2.47
2022-12-29T09:31:09.613Z,2.47
2022-12-29T09:33:36.029Z,2.05
2022-12-29T09:36:02.883Z,2.67
2022-12-29T09:38:29.334Z,2.50
2022-12-29T09:41:18.559Z,2.00
2022-12-29T09:43:45.227Z,3.65
2022-12-29T09:46:33.061Z,1.75
2022-12-29T09:48:59.447Z,2.63
2022-12-29T09:51:26.314Z,2.50
2022-12-29T09:53:54.870Z,2.70
2022-12-29T09:56:22.661Z,1.92
2022-12-29T09:58:52.909Z,1.90
2022-12-29T10:01:28.094Z,2.53
2022-12-29T10:03:56.750Z,3.58
2022-12-29T10:07:03.506Z,3.10
2022-12-29T10:09:30.790Z,2.63
2022-12-29T10:12:15.347Z,3.08
2022-12-29T10:14:44.567Z,2.40
2022-12-29T10:17:19.525Z,2.67
2022-12-29T10:20:04.824Z,2.40
2022-12-29T10:22:31.148Z,2.70
2022-12-29T10:24:58.035Z,2.28
2022-12-29T10:27:31.890Z,2.25
2022-12-29T10:29:58.892Z,2.63
2022-12-29T10:32:33.081Z,2.53
2022-12-29T10:35:01.502Z,2.33
2022-12-29T10:37:38.307Z,2.22
2022-12-29T10:40:14.946Z,2.05
2022-12-29T10:42:44.267Z,2.10
2022-12-29T10:45:14.746Z,3.25
2022-12-29T10:47:47.272Z,2.05
2022-12-29T10:50:14.156Z,2.58
2022-12-29T10:52:40.608Z,2.88
2022-12-29T10:55:14.434Z,2.67
2022-12-29T10:57:44.926Z,2.53
2022-12-29T11:00:13.271Z,3.15
2022-12-29T11:02:39.774Z,3.35
2022-12-29T11:05:11.840Z,3.97
2022-12-29T11:07:38.248Z,3.83
2022-12-29T11:10:23.405Z,4.30
2022-12-29T11:13:18.967Z,3.60
2022-12-29T11:15:49.018Z,3.60
2022-12-29T11:18:25.704Z,4.47
2022-12-29T11:20:56.884Z,4.20
2022-12-29T11:23:23.191Z,4.72
2022-12-29T11:26:08.315Z,4.68
2022-12-29T11:28:34.991Z,4.75
2022-12-29T11:31:03.031Z,4.78
2022-12-29T11:33:30.156Z,4.38
2022-12-29T11:36:02.218Z,3.95
2022-12-29T11:38:32.362Z,4.50
2022-12-29T11:40:58.687Z,3.90
2022-12-29T11:43:35.741Z,4.75
2022-12-29T11:46:04.559Z,3.55
2022-12-29T11:48:34.285Z,4.13
2022-12-29T11:51:00.892Z,4.30
2022-12-29T11:53:45.461Z,3.85
2022-12-29T11:56:14.152Z,3.78
2022-12-29T11:58:40.497Z,5.50
2022-12-29T12:01:11.134Z,4.22
2022-12-29T12:03:39.558Z,4.80
2022-12-29T12:06:07.204Z,4.05
2022-12-29T12:08:44.936Z,3.70
2022-12-29T12:11:26.034Z,4.60
2022-12-29T12:14:01.917Z,4.43
2022-12-29T12:16:47.396Z,4.47
2022-12-29T12:19:24.700Z,4.50
2022-12-29T12:22:04.691Z,3.78
2022-12-29T12:24:33.778Z,4.85
2022-12-29T12:27:19.028Z,4.40
2022-12-29T12:29:53.485Z,4.63
2022-12-29T12:32:42.262Z,4.78
2022-12-29T12:35:14.480Z,5.35
2022-12-29T12:37:50.441Z,5.85
2022-12-29T12:40:23.493Z,6.40
2022-12-29T12:42:52.809Z,5.53
2022-12-29T12:45:38.074Z,4.68
2022-12-29T12:48:10.877Z,5.03
2022-12-29T12:50:56.104Z,4.47
2022-12-29T12:53:22.510Z,5.10
2022-12-29T12:56:07.623Z,4.78
2022-12-29T12:58:42.798Z,5.32
2022-12-29T13:01:14.902Z,5.63
2022-12-29T13:03:41.279Z,5.70
2022-12-29T13:06:23.346Z,4.70
2022-12-29T13:09:08.326Z,4.33
2022-12-29T13:11:37.646Z,4.07
2022-12-29T13:14:22.587Z,3.85
2022-12-29T13:17:03.157Z,4.50
2022-12-29T13:19:35.529Z,4.05
2022-12-29T13:22:06.956Z,3.78
2022-12-29T13:24:33.513Z,5.50
2022-12-29T13:26:59.843Z,5.00
2022-12-29T13:29:36.990Z,3.33
2022-12-29T13:32:18.986Z,3.95
2022-12-29T13:34:54.142Z,3.97
2022-12-29T13:37:26.973Z,3.17
2022-12-29T13:39:55.507Z,3.55
2022-12-29T13:42:22.232Z,3.22
2022-12-29T13:45:04.965Z,4.63
2022-12-29T13:47:45.206Z,3.97
2022-12-29T13:50:22.853Z,4.88
2022-12-29T13:52:53.835Z,3.55
2022-12-29T13:55:21.180Z,3.33
2022-12-29T13:57:51.575Z,4.68
2022-12-29T14:00:20.273Z,4.60
2022-12-29T14:02:46.747Z,4.70
2022-12-29T14:05:19.023Z,4.60
2022-12-29T14:07:45.450Z,4.65
2022-12-29T14:10:28.896Z,3.97
2022-12-29T14:13:21.509Z,4.05
2022-12-29T14:15:55.420Z,4.75
2022-12-29T14:18:22.862Z,4.60
2022-12-29T14:20:57.719Z,3.33
2022-12-29T14:23:38.016Z,3.92
2022-12-29T14:26:07.162Z,2.92
2022-12-29T14:28:33.457Z,2.92
2022-12-29T14:31:01.008Z,2.40
2022-12-29T14:33:29.277Z,2.63
2022-12-29T14:35:57.037Z,2.30
2022-12-29T14:38:25.024Z,2.25
2022-12-29T14:40:52.158Z,1.92
2022-12-29T14:43:23.671Z,1.95
2022-12-29T14:45:55.155Z,1.88
2022-12-29T14:48:29.488Z,1.65
2022-12-29T14:50:56.221Z,1.80
2022-12-29T14:53:42.935Z,1.70
2022-12-29T14:56:10.790Z,2.65
2022-12-29T14:58:40.118Z,2.08
2022-12-29T15:01:16.127Z,1.80
2022-12-29T15:03:46.873Z,2.35
2022-12-29T15:06:17.772Z,2.53
2022-12-29T15:08:57.019Z,2.63
2022-12-29T15:11:25.095Z,2.47
2022-12-29T15:13:51.522Z,3.20
2022-12-29T15:16:30.932Z,3.05
2022-12-29T15:18:58.064Z,2.60
2022-12-29T15:21:30.366Z,2.72
2022-12-29T15:23:57.151Z,3.35
2022-12-29T15:26:23.719Z,3.30
2022-12-29T15:28:51.542Z,2.40
2022-12-29T15:31:21.503Z,3.10
2022-12-29T15:33:54.909Z,2.45
2022-12-29T15:36:25.741Z,3.30
2022-12-29T15:38:52.398Z,3.38
2022-12-29T15:41:18.716Z,2.72
2022-12-29T15:43:47.223Z,2.58
2022-12-29T15:46:14.499Z,3.40
2022-12-29T15:48:41.416Z,3.45
2022-12-29T15:51:21.165Z,3.22
2022-12-29T15:53:48.747Z,3.75
2022-12-29T15:56:15.193Z,3.45
2022-12-29T15:58:49.567Z,2.50
2022-12-29T16:01:30.347Z,2.70
2022-12-29T16:03:58.433Z,2.72
2022-12-29T16:06:24.763Z,3.05
2022-12-29T16:08:56.829Z,2.53
2022-12-29T16:11:28.398Z,2.97
2022-12-29T16:13:55.612Z,2.60
2022-12-29T16:16:29.329Z,2.53
2022-12-29T16:18:58.119Z,2.60
2022-12-29T16:21:24.898Z,2.78
2022-12-29T16:23:53.902Z,2.53
2022-12-29T16:26:21.534Z,3.55
2022-12-29T16:28:52.358Z,2.97
2022-12-29T16:31:25.966Z,2.67
2022-12-29T16:33:53.536Z,2.72
2022-12-29T16:36:22.639Z,2.60
2022-12-29T16:38:49.078Z,2.83
2022-12-29T16:41:29.206Z,2.63
2022-12-29T16:44:15.054Z,2.58
2022-12-29T16:47:02.238Z,2.58
2022-12-29T16:49:29.715Z,3.13
2022-12-29T16:51:56.429Z,1.85
2022-12-29T16:54:24.915Z,2.17
2022-12-29T16:56:52.758Z,2.30
2022-12-29T16:59:26.526Z,2.63
2022-12-29T17:01:53.022Z,3.60
2022-12-29T17:04:19.435Z,2.20
2022-12-29T17:06:45.801Z,2.75
2022-12-29T17:09:22.766Z,3.10
2022-12-29T17:12:01.615Z,2.38
2022-12-29T17:14:41.223Z,2.08
2022-12-29T17:19:35.525Z,2.40
2022-12-29T17:22:02.253Z,2.80
2022-12-29T17:24:28.793Z,3.05
2022-12-29T17:26:59.489Z,3.47
2022-12-29T17:29:31.196Z,2.78
2022-12-29T17:31:58.147Z,3.08
2022-12-29T17:34:24.558Z,3.65
2022-12-29T17:36:50.940Z,2.53
2022-12-29T17:39:17.274Z,1.92
2022-12-29T17:41:43.602Z,2.55
2022-12-29T17:44:14.316Z,2.88
2022-12-29T17:46:40.653Z,2.92
2022-12-29T17:49:10.810Z,3.17
2022-12-29T17:51:37.257Z,2.95
2022-12-29T17:54:03.600Z,2.72
2022-12-29T17:56:30.677Z,3.42
2022-12-29T17:58:57.027Z,3.33
2022-12-29T18:01:31.041Z,3.58
2022-12-29T18:04:00.572Z,3.05
2022-12-29T18:06:26.968Z,2.47
2022-12-29T18:08:53.290Z,2.55
2022-12-29T18:11:23.973Z,2.72
2022-12-29T18:13:50.358Z,3.05
2022-12-29T18:16:17.020Z,3.42
2022-12-29T18:18:43.831Z,3.20
2022-12-29T18:21:20.593Z,2.42
2022-12-29T18:23:47.291Z,2.88
2022-12-29T18:26:25.632Z,3.80
2022-12-29T18:28:55.112Z,4.72
2022-12-29T18:31:22.575Z,2.22
2022-12-29T18:33:49.596Z,3.70
2022-12-29T18:36:16.599Z,3.33
2022-12-29T18:38:43.228Z,3.97
2022-12-29T18:41:15.359Z,3.28
2022-12-29T18:43:41.804Z,4.05
2022-12-29T18:46:08.233Z,3.80
2022-12-29T18:48:34.626Z,3.17
2022-12-29T18:51:00.984Z,3.95
2022-12-29T18:53:27.328Z,3.45
2022-12-29T18:55:54.262Z,3.00
2022-12-29T18:58:20.861Z,3.00
2022-12-29T19:00:47.688Z,3.75
2022-12-29T19:03:15.476Z,3.30
2022-12-29T19:05:42.983Z,3.28
2022-12-29T19:08:10.352Z,4.00
2022-12-29T19:10:37.335Z,3.70
2022-12-29T19:13:04.324Z,3.00
2022-12-29T19:15:31.862Z,3.28
2022-12-29T19:18:41.886Z,4.15
2022-12-29T19:20:47.019Z,5.35
2022-12-29T19:23:15.020Z,4.32
2022-12-29T19:25:41.855Z,4.15
2022-12-29T19:28:13.238Z,3.58
2022-12-29T19:30:39.555Z,4.47
2022-12-29T19:33:09.829Z,3.90
2022-12-29T19:35:36.649Z,3.60
2022-12-29T19:38:03.057Z,3.75
2022-12-29T19:40:30.058Z,3.92
2022-12-29T19:42:56.809Z,3.97
2022-12-29T19:45:23.455Z,3.47
2022-12-29T19:47:50.152Z,4.47
2022-12-29T19:50:17.205Z,3.75
2022-12-29T19:52:44.440Z,4.50
2022-12-29T19:55:15.396Z,3.53
2022-12-29T19:57:42.177Z,5.70
2022-12-29T20:00:08.970Z,4.80
2022-12-29T20:02:38.693Z,5.22
2022-12-29T20:05:05.464Z,4.07
2022-12-29T20:07:31.764Z,4.22
2022-12-29T20:09:58.129Z,3.55
2022-12-29T20:12:28.979Z,4.05
2022-12-29T20:14:56.528Z,5.38
2022-12-29T20:17:32.756Z,4.80
2022-12-29T20:20:09.276Z,5.53
2022-12-29T20:22:35.736Z,3.80
2022-12-29T20:25:43.350Z,4.78
2022-12-29T20:27:48.453Z,4.95
2022-12-29T20:30:14.804Z,5.28
2022-12-29T20:32:41.412Z,4.60
2022-12-29T20:35:09.255Z,4.13
2022-12-29T20:37:35.700Z,5.50
2022-12-29T20:40:02.111Z,4.75
2022-12-29T20:42:28.528Z,4.85
2022-12-29T20:44:54.863Z,6.10
2022-12-29T20:47:21.159Z,4.85
2022-12-29T20:49:47.533Z,4.88
2022-12-29T20:52:13.918Z,4.82
2022-12-29T20:54:40.268Z,4.75
2022-12-29T20:57:06.950Z,4.18
2022-12-29T20:59:33.288Z,4.85
2022-12-29T21:01:59.803Z,4.75
2022-12-29T21:04:26.288Z,4.47
2022-12-29T21:06:52.782Z,5.20
2022-12-29T21:09:20.234Z,4.75
2022-12-29T21:11:47.017Z,4.10
2022-12-29T21:14:13.748Z,4.32
2022-12-29T21:16:40.234Z,3.75
2022-12-29T21:19:06.630Z,3.50
2022-12-29T21:21:33.051Z,4.28
2022-12-29T21:24:05.309Z,3.88
2022-12-29T21:26:32.096Z,4.18
2022-12-29T21:28:58.478Z,4.47
2022-12-29T21:31:24.903Z,4.25
2022-12-29T21:33:51.754Z,5.88
2022-12-29T21:36:18.142Z,5.18
2022-12-29T21:38:44.643Z,4.15
2022-12-29T21:41:12.462Z,4.60
2022-12-29T21:43:38.907Z,4.53
2022-12-29T21:46:06.188Z,3.72
2022-12-29T21:48:32.771Z,5.30
2022-12-29T21:51:30.160Z,3.95
2022-12-29T21:54:18.099Z,3.65
2022-12-29T21:56:48.241Z,4.80
2022-12-29T21:59:33.780Z,12.23
2022-12-29T22:02:19.373Z,6.25
2022-12-29T22:05:04.556Z,4.80
2022-12-29T22:07:49.403Z,4.60
2022-12-29T22:10:34.378Z,4.20
2022-12-29T22:13:00.987Z,3.05
2022-12-29T22:15:28.307Z,4.07
2022-12-29T22:17:55.366Z,3.55
2022-12-29T22:20:23.300Z,4.00
2022-12-29T22:22:49.695Z,3.97
2022-12-29T22:25:16.148Z,2.80
2022-12-29T22:27:43.001Z,3.53
2022-12-29T22:30:09.751Z,3.65
2022-12-29T22:32:36.270Z,3.63
2022-12-29T22:35:07.736Z,3.50
2022-12-29T22:37:35.149Z,3.75
2022-12-29T22:40:01.525Z,3.47
2022-12-29T22:42:27.911Z,3.78
2022-12-29T22:44:54.249Z,3.35
2022-12-29T22:47:20.707Z,3.15
2022-12-29T22:49:47.115Z,3.08
2022-12-29T22:52:14.524Z,4.88
2022-12-29T22:54:41.042Z,4.00
2022-12-29T22:57:07.471Z,3.08
2022-12-29T22:59:34.588Z,3.30
2022-12-29T23:02:01.230Z,3.55
2022-12-29T23:07:14.055Z,3.60
2022-12-29T23:09:40.501Z,3.33
2022-12-29T23:12:07.070Z,4.05
2022-12-29T23:14:33.438Z,3.65
2022-12-29T23:16:59.748Z,2.95
2022-12-29T23:19:26.151Z,6.60
2022-12-29T23:21:52.443Z,4.22
2022-12-29T23:24:18.839Z,3.00
2022-12-29T23:26:46.639Z,3.22
2022-12-29T23:29:14.344Z,4.25
2022-12-29T23:31:40.939Z,3.25
2022-12-29T23:34:07.790Z,4.15
2022-12-29T23:36:34.235Z,3.85
2022-12-29T23:39:00.694Z,4.30
2022-12-29T23:41:27.502Z,3.65
2022-12-29T23:43:53.831Z,3.05
2022-12-29T23:46:21.737Z,4.10
2022-12-29T23:48:48.401Z,4.18
2022-12-29T23:51:14.983Z,4.93
2022-12-29T23:53:42.235Z,3.80
2022-12-29T23:56:10.943Z,4.18
2022-12-29T23:58:37.327Z,3.53
